sensor_id;sensor_type;location;lat;lon;timestamp;temperature;humidity
10581;DHT22;5338;51.500;6.802;2022-09-27T00:03:08;12.90;99.90
10581;DHT22;5338;51.500;6.802;2022-09-27T00:05:36;12.80;99.90
10581;DHT22;5338;51.500;6.802;2022-09-27T00:15:25;12.60;99.90
10581;DHT22;5338;51.500;6.802;2022-09-27T00:20:21;12.60;99.90
10581;DHT22;5338;51.500;6.802;2022-09-27T00:22:49;12.70;99.90
10581;DHT22;5338;51.500;6.802;2022-09-27T00:25:16;12.80;99.90
10581;DHT22;5338;51.500;6.802;2022-09-27T00:30:11;13.00;99.90
10581;DHT22;5338;51.500;6.802;2022-09-27T00:32:38;13.10;99.90
10581;DHT22;5338;51.500;6.802;2022-09-27T00:40:01;12.70;99.90
10581;DHT22;5338;51.500;6.802;2022-09-27T00:45:02;12.60;99.90
10581;DHT22;5338;51.500;6.802;2022-09-27T00:47:32;12.60;99.90
10581;DHT22;5338;51.500;6.802;2022-09-27T00:50:06;12.70;99.90
10581;DHT22;5338;51.500;6.802;2022-09-27T00:52:41;12.80;99.90
10581;DHT22;5338;51.500;6.802;2022-09-27T00:55:14;12.80;99.90
10581;DHT22;5338;51.500;6.802;2022-09-27T01:00:11;12.80;99.90
10581;DHT22;5338;51.500;6.802;2022-09-27T01:02:40;12.70;99.90
10581;DHT22;5338;51.500;6.802;2022-09-27T01:05:09;12.60;99.90
10581;DHT22;5338;51.500;6.802;2022-09-27T01:10:04;13.10;99.90
10581;DHT22;5338;51.500;6.802;2022-09-27T01:12:41;12.30;99.90
10581;DHT22;5338;51.500;6.802;2022-09-27T01:15:19;12.40;99.90
10581;DHT22;5338;51.500;6.802;2022-09-27T01:17:57;12.60;99.90
10581;DHT22;5338;51.500;6.802;2022-09-27T01:20:51;12.70;99.90
10581;DHT22;5338;51.500;6.802;2022-09-27T01:23:58;12.70;99.90
10581;DHT22;5338;51.500;6.802;2022-09-27T01:26:48;12.40;99.90
10581;DHT22;5338;51.500;6.802;2022-09-27T01:29:39;12.60;99.90
10581;DHT22;5338;51.500;6.802;2022-09-27T01:32:18;12.20;99.90
10581;DHT22;5338;51.500;6.802;2022-09-27T01:34:58;12.30;99.90
10581;DHT22;5338;51.500;6.802;2022-09-27T01:37:34;12.30;99.90
10581;DHT22;5338;51.500;6.802;2022-09-27T01:40:28;12.50;99.90
10581;DHT22;5338;51.500;6.802;2022-09-27T01:43:07;12.30;99.90
10581;DHT22;5338;51.500;6.802;2022-09-27T01:45:42;12.40;99.90
10581;DHT22;5338;51.500;6.802;2022-09-27T01:48:24;12.50;99.90
10581;DHT22;5338;51.500;6.802;2022-09-27T01:51:03;12.40;99.90
10581;DHT22;5338;51.500;6.802;2022-09-27T01:53:35;12.40;99.90
10581;DHT22;5338;51.500;6.802;2022-09-27T01:56:06;12.30;99.90
10581;DHT22;5338;51.500;6.802;2022-09-27T01:58:41;11.20;99.90
10581;DHT22;5338;51.500;6.802;2022-09-27T02:01:12;12.40;99.90
10581;DHT22;5338;51.500;6.802;2022-09-27T02:03:46;12.40;99.90
10581;DHT22;5338;51.500;6.802;2022-09-27T02:06:16;12.10;99.90
10581;DHT22;5338;51.500;6.802;2022-09-27T02:08:50;12.40;99.90
10581;DHT22;5338;51.500;6.802;2022-09-27T02:13:48;12.60;99.90
10581;DHT22;5338;51.500;6.802;2022-09-27T02:16:22;12.40;99.90
10581;DHT22;5338;51.500;6.802;2022-09-27T02:19:01;12.40;99.90
10581;DHT22;5338;51.500;6.802;2022-09-27T02:21:39;12.20;99.90
10581;DHT22;5338;51.500;6.802;2022-09-27T02:24:11;12.50;99.90
10581;DHT22;5338;51.500;6.802;2022-09-27T02:26:42;12.40;99.90
10581;DHT22;5338;51.500;6.802;2022-09-27T02:29:12;12.40;99.90
10581;DHT22;5338;51.500;6.802;2022-09-27T02:34:13;12.70;99.90
10581;DHT22;5338;51.500;6.802;2022-09-27T02:44:06;12.20;99.90
10581;DHT22;5338;51.500;6.802;2022-09-27T02:46:52;12.20;99.90
10581;DHT22;5338;51.500;6.802;2022-09-27T02:49:34;12.30;99.90
10581;DHT22;5338;51.500;6.802;2022-09-27T02:52:11;12.40;99.90
10581;DHT22;5338;51.500;6.802;2022-09-27T02:54:46;12.30;99.90
10581;DHT22;5338;51.500;6.802;2022-09-27T02:57:24;12.40;99.90
10581;DHT22;5338;51.500;6.802;2022-09-27T02:59:59;12.20;99.90
10581;DHT22;5338;51.500;6.802;2022-09-27T03:02:42;12.00;99.90
10581;DHT22;5338;51.500;6.802;2022-09-27T03:05:18;12.10;99.90
10581;DHT22;5338;51.500;6.802;2022-09-27T03:07:47;12.10;99.90
10581;DHT22;5338;51.500;6.802;2022-09-27T03:10:28;12.10;99.90
10581;DHT22;5338;51.500;6.802;2022-09-27T03:15:26;12.20;99.90
10581;DHT22;5338;51.500;6.802;2022-09-27T03:20:21;12.40;99.90
10581;DHT22;5338;51.500;6.802;2022-09-27T03:30:12;12.30;99.90
10581;DHT22;5338;51.500;6.802;2022-09-27T03:32:42;12.40;99.90
10581;DHT22;5338;51.500;6.802;2022-09-27T03:37:46;12.20;99.90
10581;DHT22;5338;51.500;6.802;2022-09-27T03:40:14;12.50;99.90
10581;DHT22;5338;51.500;6.802;2022-09-27T03:42:49;12.70;99.90
10581;DHT22;5338;51.500;6.802;2022-09-27T03:45:26;12.50;99.90
10581;DHT22;5338;51.500;6.802;2022-09-27T03:50:27;12.40;99.90
10581;DHT22;5338;51.500;6.802;2022-09-27T03:52:56;12.30;99.90
10581;DHT22;5338;51.500;6.802;2022-09-27T04:08:20;12.00;99.90
10581;DHT22;5338;51.500;6.802;2022-09-27T04:13:15;12.00;99.90
10581;DHT22;5338;51.500;6.802;2022-09-27T04:23:11;11.80;99.90
10581;DHT22;5338;51.500;6.802;2022-09-27T04:25:50;11.80;99.90
10581;DHT22;5338;51.500;6.802;2022-09-27T04:28:19;12.00;99.90
10581;DHT22;5338;51.500;6.802;2022-09-27T04:30:47;12.00;99.90
10581;DHT22;5338;51.500;6.802;2022-09-27T04:33:17;12.00;99.90
10581;DHT22;5338;51.500;6.802;2022-09-27T04:35:49;12.00;99.90
10581;DHT22;5338;51.500;6.802;2022-09-27T04:38:50;12.00;99.90
10581;DHT22;5338;51.500;6.802;2022-09-27T04:41:23;12.00;99.90
10581;DHT22;5338;51.500;6.802;2022-09-27T04:43:51;11.90;99.90
10581;DHT22;5338;51.500;6.802;2022-09-27T04:48:46;12.00;99.90
10581;DHT22;5338;51.500;6.802;2022-09-27T04:51:14;11.90;99.90
10581;DHT22;5338;51.500;6.802;2022-09-27T04:56:09;11.90;99.90
10581;DHT22;5338;51.500;6.802;2022-09-27T04:58:38;11.80;99.90
10581;DHT22;5338;51.500;6.802;2022-09-27T05:01:05;11.70;99.90
10581;DHT22;5338;51.500;6.802;2022-09-27T05:15:51;11.60;99.90
10581;DHT22;5338;51.500;6.802;2022-09-27T05:23:14;11.60;99.90
10581;DHT22;5338;51.500;6.802;2022-09-27T05:28:09;11.80;99.90
10581;DHT22;5338;51.500;6.802;2022-09-27T05:31:02;11.80;99.90
10581;DHT22;5338;51.500;6.802;2022-09-27T05:33:41;11.90;99.90
10581;DHT22;5338;51.500;6.802;2022-09-27T05:46:13;11.70;99.90
10581;DHT22;5338;51.500;6.802;2022-09-27T05:48:45;11.70;99.90
10581;DHT22;5338;51.500;6.802;2022-09-27T05:51:18;11.70;99.90
10581;DHT22;5338;51.500;6.802;2022-09-27T06:01:09;11.80;99.90
10581;DHT22;5338;51.500;6.802;2022-09-27T06:06:06;11.90;99.90
10581;DHT22;5338;51.500;6.802;2022-09-27T06:08:36;12.10;99.90
10581;DHT22;5338;51.500;6.802;2022-09-27T06:11:05;12.10;99.90
10581;DHT22;5338;51.500;6.802;2022-09-27T06:13:32;12.00;99.90
10581;DHT22;5338;51.500;6.802;2022-09-27T06:16:01;11.90;99.90
10581;DHT22;5338;51.500;6.802;2022-09-27T06:18:30;11.90;99.90
10581;DHT22;5338;51.500;6.802;2022-09-27T06:20:58;12.00;99.90
10581;DHT22;5338;51.500;6.802;2022-09-27T06:28:21;12.00;99.90
10581;DHT22;5338;51.500;6.802;2022-09-27T06:30:49;11.90;99.90
10581;DHT22;5338;51.500;6.802;2022-09-27T06:33:17;12.00;99.90
10581;DHT22;5338;51.500;6.802;2022-09-27T06:35:47;11.80;99.90
10581;DHT22;5338;51.500;6.802;2022-09-27T06:38:16;11.80;99.90
10581;DHT22;5338;51.500;6.802;2022-09-27T06:40:43;11.80;99.90
10581;DHT22;5338;51.500;6.802;2022-09-27T06:43:14;11.70;99.90
10581;DHT22;5338;51.500;6.802;2022-09-27T06:45:54;11.70;99.90
10581;DHT22;5338;51.500;6.802;2022-09-27T06:48:30;11.70;99.90
10581;DHT22;5338;51.500;6.802;2022-09-27T06:50:59;11.80;99.90
10581;DHT22;5338;51.500;6.802;2022-09-27T06:55:56;11.80;99.90
10581;DHT22;5338;51.500;6.802;2022-09-27T07:03:48;11.90;99.90
10581;DHT22;5338;51.500;6.802;2022-09-27T07:06:36;12.50;99.90
10581;DHT22;5338;51.500;6.802;2022-09-27T07:09:17;12.50;99.90
10581;DHT22;5338;51.500;6.802;2022-09-27T07:14:14;12.70;99.90
10581;DHT22;5338;51.500;6.802;2022-09-27T07:21:57;12.40;99.90
10581;DHT22;5338;51.500;6.802;2022-09-27T07:34:15;12.40;99.90
10581;DHT22;5338;51.500;6.802;2022-09-27T07:39:47;12.10;99.90
10581;DHT22;5338;51.500;6.802;2022-09-27T07:42:37;12.40;99.90
10581;DHT22;5338;51.500;6.802;2022-09-27T07:45:21;12.60;99.90
10581;DHT22;5338;51.500;6.802;2022-09-27T07:48:13;12.70;99.90
10581;DHT22;5338;51.500;6.802;2022-09-27T07:55:40;12.90;99.90
10581;DHT22;5338;51.500;6.802;2022-09-27T07:58:08;13.10;99.90
10581;DHT22;5338;51.500;6.802;2022-09-27T08:00:36;13.40;99.90
10581;DHT22;5338;51.500;6.802;2022-09-27T08:03:05;12.90;99.90
10581;DHT22;5338;51.500;6.802;2022-09-27T08:05:33;12.70;99.90
10581;DHT22;5338;51.500;6.802;2022-09-27T08:10:28;12.80;99.90
10581;DHT22;5338;51.500;6.802;2022-09-27T08:12:57;13.00;99.90
10581;DHT22;5338;51.500;6.802;2022-09-27T08:27:54;12.30;99.90
10581;DHT22;5338;51.500;6.802;2022-09-27T08:30:24;12.40;99.90
10581;DHT22;5338;51.500;6.802;2022-09-27T08:32:54;12.30;99.90
10581;DHT22;5338;51.500;6.802;2022-09-27T08:37:53;11.70;99.90
10581;DHT22;5338;51.500;6.802;2022-09-27T08:40:26;11.70;99.90
10581;DHT22;5338;51.500;6.802;2022-09-27T08:43:05;12.00;99.90
10581;DHT22;5338;51.500;6.802;2022-09-27T08:45:40;11.90;99.90
10581;DHT22;5338;51.500;6.802;2022-09-27T08:48:09;11.80;99.90
10581;DHT22;5338;51.500;6.802;2022-09-27T08:50:39;11.90;99.90
10581;DHT22;5338;51.500;6.802;2022-09-27T08:53:19;12.00;99.90
10581;DHT22;5338;51.500;6.802;2022-09-27T08:55:48;12.00;99.90
10581;DHT22;5338;51.500;6.802;2022-09-27T08:58:22;11.80;99.90
10581;DHT22;5338;51.500;6.802;2022-09-27T09:00:54;11.80;99.90
10581;DHT22;5338;51.500;6.802;2022-09-27T09:03:27;11.70;99.90
10581;DHT22;5338;51.500;6.802;2022-09-27T09:06:06;11.80;99.90
10581;DHT22;5338;51.500;6.802;2022-09-27T09:08:41;11.80;99.90
10581;DHT22;5338;51.500;6.802;2022-09-27T09:11:18;12.00;99.90
10581;DHT22;5338;51.500;6.802;2022-09-27T09:14:44;11.90;99.90
10581;DHT22;5338;51.500;6.802;2022-09-27T09:17:22;12.10;99.90
10581;DHT22;5338;51.500;6.802;2022-09-27T09:20:02;12.00;99.90
10581;DHT22;5338;51.500;6.802;2022-09-27T09:22:49;12.20;99.90
10581;DHT22;5338;51.500;6.802;2022-09-27T09:25:28;12.30;99.90
10581;DHT22;5338;51.500;6.802;2022-09-27T09:28:10;12.30;99.90
10581;DHT22;5338;51.500;6.802;2022-09-27T09:30:49;12.20;99.90
10581;DHT22;5338;51.500;6.802;2022-09-27T09:33:24;12.30;99.90
10581;DHT22;5338;51.500;6.802;2022-09-27T09:35:54;12.30;99.90
10581;DHT22;5338;51.500;6.802;2022-09-27T09:38:33;12.10;99.90
10581;DHT22;5338;51.500;6.802;2022-09-27T09:41:04;12.10;99.90
10581;DHT22;5338;51.500;6.802;2022-09-27T09:43:36;12.20;99.90
10581;DHT22;5338;51.500;6.802;2022-09-27T09:46:09;12.00;99.90
10581;DHT22;5338;51.500;6.802;2022-09-27T09:48:44;12.00;99.90
10581;DHT22;5338;51.500;6.802;2022-09-27T09:51:16;12.10;99.90
10581;DHT22;5338;51.500;6.802;2022-09-27T09:53:50;12.10;99.90
10581;DHT22;5338;51.500;6.802;2022-09-27T09:56:22;12.00;99.90
10581;DHT22;5338;51.500;6.802;2022-09-27T09:58:54;11.90;99.90
10581;DHT22;5338;51.500;6.802;2022-09-27T10:01:27;11.90;99.90
10581;DHT22;5338;51.500;6.802;2022-09-27T10:03:57;12.00;99.90
10581;DHT22;5338;51.500;6.802;2022-09-27T10:06:25;12.20;99.90
10581;DHT22;5338;51.500;6.802;2022-09-27T10:11:26;12.20;99.90
10581;DHT22;5338;51.500;6.802;2022-09-27T10:16:21;12.40;99.90
10581;DHT22;5338;51.500;6.802;2022-09-27T10:18:51;12.40;99.90
10581;DHT22;5338;51.500;6.802;2022-09-27T10:21:24;12.70;99.90
10581;DHT22;5338;51.500;6.802;2022-09-27T10:24:07;13.00;99.90
10581;DHT22;5338;51.500;6.802;2022-09-27T10:26:35;13.20;99.90
10581;DHT22;5338;51.500;6.802;2022-09-27T10:29:23;13.30;99.90
10581;DHT22;5338;51.500;6.802;2022-09-27T10:31:51;13.30;99.90
10581;DHT22;5338;51.500;6.802;2022-09-27T10:34:24;13.20;99.90
10581;DHT22;5338;51.500;6.802;2022-09-27T10:37:12;13.10;99.90
10581;DHT22;5338;51.500;6.802;2022-09-27T10:39:42;13.10;99.90
10581;DHT22;5338;51.500;6.802;2022-09-27T10:42:30;13.10;99.90
10581;DHT22;5338;51.500;6.802;2022-09-27T10:45:26;12.90;99.90
10581;DHT22;5338;51.500;6.802;2022-09-27T10:47:54;12.90;99.90
10581;DHT22;5338;51.500;6.802;2022-09-27T10:50:23;12.90;99.90
10581;DHT22;5338;51.500;6.802;2022-09-27T10:53:03;12.80;99.90
10581;DHT22;5338;51.500;6.802;2022-09-27T10:55:32;12.90;99.90
10581;DHT22;5338;51.500;6.802;2022-09-27T10:58:00;12.90;99.90
10581;DHT22;5338;51.500;6.802;2022-09-27T11:00:29;13.00;99.90
10581;DHT22;5338;51.500;6.802;2022-09-27T11:03:00;13.40;99.90
10581;DHT22;5338;51.500;6.802;2022-09-27T11:05:32;12.90;99.90
10581;DHT22;5338;51.500;6.802;2022-09-27T11:08:19;12.80;99.90
10581;DHT22;5338;51.500;6.802;2022-09-27T11:11:04;13.00;99.90
10581;DHT22;5338;51.500;6.802;2022-09-27T11:16:20;13.40;99.90
10581;DHT22;5338;51.500;6.802;2022-09-27T11:18:59;13.80;99.90
10581;DHT22;5338;51.500;6.802;2022-09-27T11:21:36;13.30;99.90
10581;DHT22;5338;51.500;6.802;2022-09-27T11:24:26;13.10;99.90
10581;DHT22;5338;51.500;6.802;2022-09-27T11:27:06;13.20;99.90
10581;DHT22;5338;51.500;6.802;2022-09-27T11:29:47;13.60;99.90
10581;DHT22;5338;51.500;6.802;2022-09-27T11:32:40;13.70;99.90
10581;DHT22;5338;51.500;6.802;2022-09-27T11:35:31;13.90;99.90
10581;DHT22;5338;51.500;6.802;2022-09-27T11:38:10;13.80;99.90
10581;DHT22;5338;51.500;6.802;2022-09-27T11:40:55;13.80;99.90
10581;DHT22;5338;51.500;6.802;2022-09-27T11:43:37;13.40;99.90
10581;DHT22;5338;51.500;6.802;2022-09-27T11:46:19;13.50;99.90
10581;DHT22;5338;51.500;6.802;2022-09-27T11:48:58;13.30;99.90
10581;DHT22;5338;51.500;6.802;2022-09-27T11:51:36;13.30;99.90
10581;DHT22;5338;51.500;6.802;2022-09-27T11:54:20;13.20;99.90
10581;DHT22;5338;51.500;6.802;2022-09-27T11:56:58;13.20;99.90
10581;DHT22;5338;51.500;6.802;2022-09-27T11:59:57;13.40;99.90
10581;DHT22;5338;51.500;6.802;2022-09-27T12:02:46;13.50;99.90
10581;DHT22;5338;51.500;6.802;2022-09-27T12:05:30;13.40;99.90
10581;DHT22;5338;51.500;6.802;2022-09-27T12:08:11;13.20;99.90
10581;DHT22;5338;51.500;6.802;2022-09-27T12:10:47;13.00;99.90
10581;DHT22;5338;51.500;6.802;2022-09-27T12:13:26;12.80;99.90
10581;DHT22;5338;51.500;6.802;2022-09-27T12:15:55;12.80;99.90
10581;DHT22;5338;51.500;6.802;2022-09-27T12:18:26;12.80;99.90
10581;DHT22;5338;51.500;6.802;2022-09-27T12:20:55;12.90;99.90
10581;DHT22;5338;51.500;6.802;2022-09-27T12:23:25;13.30;99.90
10581;DHT22;5338;51.500;6.802;2022-09-27T12:25:57;13.30;99.90
10581;DHT22;5338;51.500;6.802;2022-09-27T12:28:31;13.10;99.90
10581;DHT22;5338;51.500;6.802;2022-09-27T12:31:04;12.90;99.90
10581;DHT22;5338;51.500;6.802;2022-09-27T12:33:38;13.00;99.90
10581;DHT22;5338;51.500;6.802;2022-09-27T12:36:08;12.80;99.90
10581;DHT22;5338;51.500;6.802;2022-09-27T12:38:44;12.70;99.90
10581;DHT22;5338;51.500;6.802;2022-09-27T12:41:17;12.70;99.90
10581;DHT22;5338;51.500;6.802;2022-09-27T12:43:48;12.80;99.90
10581;DHT22;5338;51.500;6.802;2022-09-27T12:46:23;12.90;99.90
10581;DHT22;5338;51.500;6.802;2022-09-27T12:48:57;13.00;99.90
10581;DHT22;5338;51.500;6.802;2022-09-27T12:51:33;13.00;99.90
10581;DHT22;5338;51.500;6.802;2022-09-27T12:57:01;13.20;99.90
10581;DHT22;5338;51.500;6.802;2022-09-27T12:59:44;13.40;99.90
10581;DHT22;5338;51.500;6.802;2022-09-27T13:02:27;13.10;99.90
10581;DHT22;5338;51.500;6.802;2022-09-27T13:05:19;12.90;99.90
10581;DHT22;5338;51.500;6.802;2022-09-27T13:08:09;12.80;99.90
10581;DHT22;5338;51.500;6.802;2022-09-27T13:10:50;13.00;99.90
10581;DHT22;5338;51.500;6.802;2022-09-27T13:13:21;13.10;99.90
10581;DHT22;5338;51.500;6.802;2022-09-27T13:15:55;13.00;99.90
10581;DHT22;5338;51.500;6.802;2022-09-27T13:18:31;13.20;99.90
10581;DHT22;5338;51.500;6.802;2022-09-27T13:27:36;13.40;99.90
10581;DHT22;5338;51.500;6.802;2022-09-27T13:33:33;13.60;99.90
10581;DHT22;5338;51.500;6.802;2022-09-27T13:36:28;14.00;99.90
10581;DHT22;5338;51.500;6.802;2022-09-27T13:39:18;13.90;99.90
10581;DHT22;5338;51.500;6.802;2022-09-27T13:42:02;14.20;99.90
10581;DHT22;5338;51.500;6.802;2022-09-27T13:44:49;14.30;99.90
10581;DHT22;5338;51.500;6.802;2022-09-27T13:47:27;14.50;99.90
10581;DHT22;5338;51.500;6.802;2022-09-27T13:50:12;14.50;99.90
10581;DHT22;5338;51.500;6.802;2022-09-27T13:53:02;14.50;99.90
10581;DHT22;5338;51.500;6.802;2022-09-27T13:55:42;14.30;99.90
10581;DHT22;5338;51.500;6.802;2022-09-27T13:58:46;14.50;99.90
10581;DHT22;5338;51.500;6.802;2022-09-27T14:01:32;14.30;99.90
10581;DHT22;5338;51.500;6.802;2022-09-27T14:04:17;14.20;99.90
10581;DHT22;5338;51.500;6.802;2022-09-27T14:06:52;14.40;99.90
10581;DHT22;5338;51.500;6.802;2022-09-27T14:09:30;14.40;99.90
10581;DHT22;5338;51.500;6.802;2022-09-27T14:12:09;14.40;99.90
10581;DHT22;5338;51.500;6.802;2022-09-27T14:14:53;14.20;99.90
10581;DHT22;5338;51.500;6.802;2022-09-27T14:17:21;14.10;99.90
10581;DHT22;5338;51.500;6.802;2022-09-27T14:22:19;13.90;99.90
10581;DHT22;5338;51.500;6.802;2022-09-27T14:24:48;13.60;99.90
10581;DHT22;5338;51.500;6.802;2022-09-27T14:27:17;13.60;99.90
10581;DHT22;5338;51.500;6.802;2022-09-27T14:29:47;13.70;99.90
10581;DHT22;5338;51.500;6.802;2022-09-27T14:32:16;13.70;99.90
10581;DHT22;5338;51.500;6.802;2022-09-27T14:37:22;13.80;99.90
10581;DHT22;5338;51.500;6.802;2022-09-27T14:39:56;13.70;99.90
10581;DHT22;5338;51.500;6.802;2022-09-27T14:42:25;13.70;99.90
10581;DHT22;5338;51.500;6.802;2022-09-27T14:44:56;13.80;99.90
10581;DHT22;5338;51.500;6.802;2022-09-27T14:47:26;13.10;99.90
10581;DHT22;5338;51.500;6.802;2022-09-27T14:49:55;13.70;99.90
10581;DHT22;5338;51.500;6.802;2022-09-27T14:52:26;13.60;99.90
10581;DHT22;5338;51.500;6.802;2022-09-27T14:55:01;13.60;99.90
10581;DHT22;5338;51.500;6.802;2022-09-27T14:57:30;13.80;99.90
10581;DHT22;5338;51.500;6.802;2022-09-27T15:00:13;13.80;99.90
10581;DHT22;5338;51.500;6.802;2022-09-27T15:05:14;13.70;99.90
10581;DHT22;5338;51.500;6.802;2022-09-27T15:07:44;13.70;99.90
10581;DHT22;5338;51.500;6.802;2022-09-27T15:10:13;13.70;99.90
10581;DHT22;5338;51.500;6.802;2022-09-27T15:12:44;13.70;99.90
10581;DHT22;5338;51.500;6.802;2022-09-27T15:15:13;13.70;99.90
10581;DHT22;5338;51.500;6.802;2022-09-27T15:17:41;13.90;99.90
10581;DHT22;5338;51.500;6.802;2022-09-27T15:20:21;14.10;99.90
10581;DHT22;5338;51.500;6.802;2022-09-27T15:22:50;14.00;99.90
10581;DHT22;5338;51.500;6.802;2022-09-27T15:25:21;14.00;99.90
10581;DHT22;5338;51.500;6.802;2022-09-27T15:27:50;14.00;99.90
10581;DHT22;5338;51.500;6.802;2022-09-27T15:30:20;13.90;99.90
10581;DHT22;5338;51.500;6.802;2022-09-27T15:32:52;13.80;99.90
10581;DHT22;5338;51.500;6.802;2022-09-27T15:35:24;13.70;99.90
10581;DHT22;5338;51.500;6.802;2022-09-27T15:38:09;13.80;99.90
10581;DHT22;5338;51.500;6.802;2022-09-27T15:41:05;14.10;99.90
10581;DHT22;5338;51.500;6.802;2022-09-27T15:43:35;14.40;99.90
10581;DHT22;5338;51.500;6.802;2022-09-27T15:46:22;14.80;99.90
10581;DHT22;5338;51.500;6.802;2022-09-27T15:49:13;15.00;99.90
10581;DHT22;5338;51.500;6.802;2022-09-27T15:51:44;15.10;99.90
10581;DHT22;5338;51.500;6.802;2022-09-27T15:54:13;15.00;99.90
10581;DHT22;5338;51.500;6.802;2022-09-27T15:59:13;15.10;99.90
10581;DHT22;5338;51.500;6.802;2022-09-27T16:06:37;14.20;99.90
10581;DHT22;5338;51.500;6.802;2022-09-27T16:11:33;13.20;99.90
10581;DHT22;5338;51.500;6.802;2022-09-27T16:28:45;12.90;99.90
10581;DHT22;5338;51.500;6.802;2022-09-27T16:31:14;12.90;99.90
10581;DHT22;5338;51.500;6.802;2022-09-27T16:46:07;13.20;99.90
10581;DHT22;5338;51.500;6.802;2022-09-27T16:51:05;13.20;99.90
10581;DHT22;5338;51.500;6.802;2022-09-27T17:01:13;12.50;99.90
10581;DHT22;5338;51.500;6.802;2022-09-27T17:18:27;12.00;99.90
10581;DHT22;5338;51.500;6.802;2022-09-27T17:20:59;11.70;99.90
10581;DHT22;5338;51.500;6.802;2022-09-27T17:35:46;10.70;99.90
10581;DHT22;5338;51.500;6.802;2022-09-27T17:40:58;11.00;99.90
10581;DHT22;5338;51.500;6.802;2022-09-27T17:51:06;10.90;99.90
10581;DHT22;5338;51.500;6.802;2022-09-27T18:01:01;10.90;99.90
10581;DHT22;5338;51.500;6.802;2022-09-27T18:08:25;10.80;99.90
10581;DHT22;5338;51.500;6.802;2022-09-27T18:15:54;10.80;99.90
10581;DHT22;5338;51.500;6.802;2022-09-27T18:25:53;10.60;99.90
10581;DHT22;5338;51.500;6.802;2022-09-27T18:28:25;10.60;99.90
10581;DHT22;5338;51.500;6.802;2022-09-27T18:33:20;10.50;99.90
10581;DHT22;5338;51.500;6.802;2022-09-27T18:43:10;10.60;99.90
10581;DHT22;5338;51.500;6.802;2022-09-27T18:45:37;10.50;99.90
10581;DHT22;5338;51.500;6.802;2022-09-27T18:50:34;10.50;99.90
10581;DHT22;5338;51.500;6.802;2022-09-27T18:55:28;10.70;99.90
10581;DHT22;5338;51.500;6.802;2022-09-27T19:00:24;10.40;99.90
10581;DHT22;5338;51.500;6.802;2022-09-27T19:15:09;10.30;99.90
10581;DHT22;5338;51.500;6.802;2022-09-27T19:17:37;10.30;99.90
10581;DHT22;5338;51.500;6.802;2022-09-27T19:20:05;10.20;99.90
10581;DHT22;5338;51.500;6.802;2022-09-27T19:27:29;10.20;99.90
10581;DHT22;5338;51.500;6.802;2022-09-27T19:34:53;10.20;99.90
10581;DHT22;5338;51.500;6.802;2022-09-27T19:52:05;10.40;99.90
10581;DHT22;5338;51.500;6.802;2022-09-27T20:09:17;10.40;99.90
10581;DHT22;5338;51.500;6.802;2022-09-27T20:24:00;10.40;99.90
10581;DHT22;5338;51.500;6.802;2022-09-27T20:26:29;10.30;99.90
10581;DHT22;5338;51.500;6.802;2022-09-27T20:28:58;10.30;99.90
10581;DHT22;5338;51.500;6.802;2022-09-27T20:31:26;10.30;99.90
10581;DHT22;5338;51.500;6.802;2022-09-27T20:36:23;10.30;99.90
10581;DHT22;5338;51.500;6.802;2022-09-27T20:38:51;10.20;99.90
10581;DHT22;5338;51.500;6.802;2022-09-27T20:41:20;10.30;99.90
10581;DHT22;5338;51.500;6.802;2022-09-27T20:43:51;10.20;99.90
10581;DHT22;5338;51.500;6.802;2022-09-27T20:46:20;10.20;99.90
10581;DHT22;5338;51.500;6.802;2022-09-27T20:48:51;10.10;99.90
10581;DHT22;5338;51.500;6.802;2022-09-27T20:51:19;10.10;99.90
10581;DHT22;5338;51.500;6.802;2022-09-27T20:53:47;10.00;99.90
10581;DHT22;5338;51.500;6.802;2022-09-27T20:56:16;10.10;99.90
10581;DHT22;5338;51.500;6.802;2022-09-27T21:01:13;10.10;99.90
10581;DHT22;5338;51.500;6.802;2022-09-27T21:08:34;10.00;99.90
10581;DHT22;5338;51.500;6.802;2022-09-27T21:11:05;9.90;99.90
10581;DHT22;5338;51.500;6.802;2022-09-27T21:13:33;10.00;99.90
10581;DHT22;5338;51.500;6.802;2022-09-27T21:16:02;9.90;99.90
10581;DHT22;5338;51.500;6.802;2022-09-27T21:18:30;9.90;99.90
10581;DHT22;5338;51.500;6.802;2022-09-27T21:20:58;9.80;99.90
10581;DHT22;5338;51.500;6.802;2022-09-27T21:26:03;10.00;99.90
10581;DHT22;5338;51.500;6.802;2022-09-27T21:28:32;9.80;99.90
10581;DHT22;5338;51.500;6.802;2022-09-27T21:31:01;9.80;99.90
10581;DHT22;5338;51.500;6.802;2022-09-27T21:33:30;9.80;99.90
10581;DHT22;5338;51.500;6.802;2022-09-27T21:40:55;9.80;99.90
10581;DHT22;5338;51.500;6.802;2022-09-27T21:43:26;9.90;99.90
10581;DHT22;5338;51.500;6.802;2022-09-27T21:45:59;9.80;99.90
10581;DHT22;5338;51.500;6.802;2022-09-27T21:51:02;9.80;99.90
10581;DHT22;5338;51.500;6.802;2022-09-27T21:55:57;9.90;99.90
10581;DHT22;5338;51.500;6.802;2022-09-27T22:05:46;9.80;99.90
10581;DHT22;5338;51.500;6.802;2022-09-27T22:08:15;9.70;99.90
10581;DHT22;5338;51.500;6.802;2022-09-27T22:10:43;9.80;99.90
10581;DHT22;5338;51.500;6.802;2022-09-27T22:13:10;9.90;99.90
10581;DHT22;5338;51.500;6.802;2022-09-27T22:15:37;10.00;99.90
10581;DHT22;5338;51.500;6.802;2022-09-27T22:25:28;9.80;99.90
10581;DHT22;5338;51.500;6.802;2022-09-27T22:37:44;9.70;99.90
10581;DHT22;5338;51.500;6.802;2022-09-27T22:40:11;9.80;99.90
10581;DHT22;5338;51.500;6.802;2022-09-27T22:42:39;9.90;99.90
10581;DHT22;5338;51.500;6.802;2022-09-27T22:45:07;9.90;99.90
10581;DHT22;5338;51.500;6.802;2022-09-27T22:47:34;10.00;99.90
10581;DHT22;5338;51.500;6.802;2022-09-27T22:50:01;9.80;99.90
10581;DHT22;5338;51.500;6.802;2022-09-27T22:59:52;9.80;99.90
10581;DHT22;5338;51.500;6.802;2022-09-27T23:07:13;9.70;99.90
10581;DHT22;5338;51.500;6.802;2022-09-27T23:09:40;9.70;99.90
10581;DHT22;5338;51.500;6.802;2022-09-27T23:17:02;9.70;99.90
10581;DHT22;5338;51.500;6.802;2022-09-27T23:19:29;9.70;99.90
10581;DHT22;5338;51.500;6.802;2022-09-27T23:24:25;9.50;99.90
10581;DHT22;5338;51.500;6.802;2022-09-27T23:26:52;9.60;99.90
10581;DHT22;5338;51.500;6.802;2022-09-27T23:29:32;9.60;99.90
10581;DHT22;5338;51.500;6.802;2022-09-27T23:32:00;9.50;99.90
10581;DHT22;5338;51.500;6.802;2022-09-27T23:34:30;9.60;99.90
10581;DHT22;5338;51.500;6.802;2022-09-27T23:46:45;9.70;99.90
10581;DHT22;5338;51.500;6.802;2022-09-27T23:49:12;9.50;99.90
10581;DHT22;5338;51.500;6.802;2022-09-27T23:51:40;9.50;99.90
10581;DHT22;5338;51.500;6.802;2022-09-27T23:54:10;7.90;99.90
10581;DHT22;5338;51.500;6.802;2022-09-27T23:56:37;9.50;99.90
